Martinez Lake, Arizona
Current Conditions -  °F | °C
As of 4:57 AM on Monday 26 Jan 2015 (Local Time) from KNYL Reporting Station
Light Rain Light Rain  
Wind Chill: 58°   Ceiling: 10000
Heat Index: 58°   Visibility: NA
Dew Point: 37°   Wind: 5mph
Humidity: 46%   Direction: 40°NE
Pressure: 30.03"   Gusts: NA
Location:  32.7338°N, 114.51°W
Report Text: KNYL 261157Z AUTO 04004KT -RA FEW075 OVC100 14/03 A3003 RMK AO2 SLP168 P0000 60000 T01440028 10167 20144 58005 $
Loading
Personal Weather Stations






























Interactive Weather Map New forecast layout! Learn more

10-Day Weather Forecast

Advertisements
Track Severe Weather on mobile